Details for SAS (Scandinavian Airlines) at EKCH




Go Back


Latest METAR
Local Time

EKCH 221019Z 25026G43KT 3000 -SHRA BKN032 FEW040CB 11/09 Q1010 TEMPO 9999 NSC
22/09/2018, 12:50:16

Description
Results
SAS (Scandinavian Airlines) Logo
Number of Pilots based at EKCH
1 Pilots Based here
Number of SAS (Scandinavian Airlines) Flights Departed from EKCH
63 Flights Departed
Number of SAS (Scandinavian Airlines) Flights Arrived at EKCH
57 Flights Arrived
Number of SAS (Scandinavian Airlines) Schedules Departing from EKCH
309 Schedules
Number of SAS (Scandinavian Airlines) Schedules Arriving at EKCH
303 Schedules
Number of SAS (Scandinavian Airlines) Schedules Departing from EKCH availible today
115 Schedules Today
Number of SAS (Scandinavian Airlines) Schedules Arriving at EKCH availible today
124 Schedules Today
Average Landing Rate at EKCH
-219 fpm
SAS (Scandinavian Airlines) Average Landing Rate at EKCH
-213 fpm
Total Fuel Purchased at EKCH by SAS (Scandinavian Airlines)
289,283.29 kgs / 637,753.94 lbs

Pilots Based at EKCH


Pilot ID
Pilot Name
Pilot Rank
No. of Flights
No. of Flying Hours
Charles Nielsen
20
45.26
Content